Time;durP1;ratioP1;P1;durP2;ratioP2;P2;SDS_P1;SDS_P2;PMS_P1;PMS_P2;Temp;Humidity;BMP_temperature;BMP_pressure;BME280_temperature;BME280_humidity;BME280_pressure;Samples;Min_cycle;Max_cycle;Signal;HPM_P1;HPM_P2
2021/12/10 00:04:39;;;;;;;93.78;69.65;;;4.40;99.90;;;;;;4921785;29;20160;-85
2021/12/10 00:11:41;;;;;;;;;;;;;;;;;;;;;
2021/12/10 00:18:31;;;;;;;87.82;62.05;;;4.20;99.90;;;;;;4916666;29;20177;-85
2021/12/10 00:21:52;;;;;;;115.25;103.50;;;4.20;99.90;;;;;;4924604;29;20204;-85
2021/12/10 00:25:20;;;;;;;;;;;;;;;;;;;;;
2021/12/10 00:34:45;;;;;;;;;;;;;;;;;;;;;
2021/12/10 00:37:42;;;;;;;;;;;;;;;;;;;;;
2021/12/10 00:41:09;;;;;;;82.22;45.38;;;4.20;99.90;;;;;;4883171;29;20288;-85
2021/12/10 00:44:27;;;;;;;;;;;;;;;;;;;;;
2021/12/10 00:48:04;;;;;;;109.10;96.20;;;4.00;99.90;;;;;;4895767;29;20743;-85
2021/12/10 00:54:49;;;;;;;;;;;;;;;;;;;;;
2021/12/10 00:58:17;;;;;;;;;;;;;;;;;;;;;
2021/12/10 01:01:27;;;;;;;79.63;34.53;;;4.00;99.90;;;;;;4896516;29;20198;-84
2021/12/10 01:05:06;;;;;;;85.13;41.47;;;4.00;99.90;;;;;;4884165;29;20772;-85
2021/12/10 01:08:16;;;;;;;;;;;;;;;;;;;;;
2021/12/10 01:28:23;;;;;;;102.05;86.93;;;4.00;99.90;;;;;;4808491;29;20258;-83
2021/12/10 01:31:21;;;;;;;102.57;89.57;;;4.20;99.90;;;;;;4865715;29;20210;-85
2021/12/10 01:34:19;;;;;;;;;;;;;;;;;;;;;
2021/12/10 01:37:23;;;;;;;92.40;61.70;;;4.20;99.90;;;;;;4926323;29;20260;-85
2021/12/10 01:40:23;;;;;;;88.80;52.72;;;4.30;99.90;;;;;;4923899;29;20192;-85
2021/12/10 01:47:20;;;;;;;87.60;55.80;;;4.20;99.90;;;;;;4917965;29;20176;-85
2021/12/10 01:50:47;;;;;;;;;;;;;;;;;;;;;
2021/12/10 01:54:07;;;;;;;87.28;51.90;;;4.30;99.90;;;;;;4926003;29;20248;-85
2021/12/10 01:56:56;;;;;;;94.40;67.63;;;4.20;99.90;;;;;;4888279;29;20675;-85
2021/12/10 01:59:54;;;;;;;92.05;68.53;;;4.30;99.90;;;;;;4925332;29;20231;-85
2021/12/10 02:07:18;;;;;;;82.50;47.67;;;4.30;99.90;;;;;;4886046;29;20788;-85
2021/12/10 02:10:39;;;;;;;88.18;50.92;;;4.30;99.90;;;;;;4814904;29;20265;-85
2021/12/10 04:21:12;;;;;;;86.75;46.10;;;4.30;99.90;;;;;;5503223;23;20236;-89
2021/12/10 04:23:41;;;;;;;81.72;30.85;;;4.30;99.90;;;;;;4916226;29;20180;-90
2021/12/10 04:26:12;;;;;;;86.25;53.65;;;4.40;99.90;;;;;;4916022;29;20197;-90
2021/12/10 04:28:41;;;;;;;85.43;52.70;;;4.30;99.90;;;;;;4917376;29;20682;-90
2021/12/10 04:31:07;;;;;;;93.93;62.90;;;4.40;99.90;;;;;;4917021;29;20173;-90
2021/12/10 04:33:33;;;;;;;90.50;65.03;;;4.40;99.90;;;;;;4916989;29;20516;-90
2021/12/10 04:36:02;;;;;;;98.45;81.90;;;4.30;99.90;;;;;;4916065;29;20468;-90
2021/12/10 04:38:32;;;;;;;93.55;71.13;;;4.40;99.90;;;;;;4915985;29;20236;-90
2021/12/10 04:41:00;;;;;;;95.00;64.20;;;4.40;99.90;;;;;;4917406;29;20597;-90
2021/12/10 04:43:33;;;;;;;98.95;68.05;;;4.40;99.90;;;;;;4915715;29;20169;-90
2021/12/10 04:46:05;;;;;;;80.93;42.65;;;4.30;99.90;;;;;;4916875;29;20193;-90
2021/12/10 04:49:00;;;;;;;87.22;59.08;;;4.30;99.90;;;;;;4917249;29;20156;-90
2021/12/10 04:51:40;;;;;;;88.53;54.42;;;4.30;99.90;;;;;;4916644;29;20642;-90
2021/12/10 04:54:08;;;;;;;86.75;54.72;;;4.30;99.90;;;;;;4918270;29;20172;-90
2021/12/10 04:56:34;;;;;;;87.75;47.40;;;4.20;99.90;;;;;;4919947;29;20549;-90
2021/12/10 04:59:09;;;;;;;90.53;57.72;;;4.20;99.90;;;;;;4920651;29;20167;-90
2021/12/10 05:01:36;;;;;;;80.40;33.97;;;4.10;99.90;;;;;;4919538;29;20653;-90
2021/12/10 05:04:06;;;;;;;85.05;38.63;;;4.20;99.90;;;;;;4920543;29;20176;-89
2021/12/10 05:06:42;;;;;;;77.60;30.63;;;4.10;99.90;;;;;;4920526;29;20213;-90
2021/12/10 05:09:13;;;;;;;85.18;48.58;;;4.00;99.90;;;;;;4919766;29;20281;-90
2021/12/10 05:11:43;;;;;;;96.63;74.72;;;4.00;99.90;;;;;;4919286;29;20653;-90
2021/12/10 05:14:09;;;;;;;86.55;60.72;;;3.90;99.90;;;;;;4920249;29;20762;-90
2021/12/10 05:16:45;;;;;;;92.07;69.85;;;3.90;99.90;;;;;;4920413;29;20193;-90
2021/12/10 05:19:27;;;;;;;92.40;63.25;;;3.90;99.90;;;;;;4920102;29;20165;-90
2021/12/10 05:21:53;;;;;;;102.72;87.13;;;3.80;99.90;;;;;;4919288;29;20244;-90
2021/12/10 05:24:22;;;;;;;123.45;111.05;;;3.80;99.90;;;;;;4920255;29;20260;-90
2021/12/10 05:26:53;;;;;;;113.38;101.45;;;3.80;99.90;;;;;;4918946;29;20681;-90
2021/12/10 05:29:19;;;;;;;93.97;77.28;;;3.80;99.90;;;;;;4920583;29;20161;-90
2021/12/10 05:31:46;;;;;;;125.72;113.15;;;3.80;99.90;;;;;;4919366;29;20177;-89
2021/12/10 05:34:12;;;;;;;165.35;151.43;;;3.80;99.90;;;;;;4920204;29;20293;-90
2021/12/10 05:37:57;;;;;;;95.45;84.20;;;3.70;99.90;;;;;;4920103;29;20189;-90
2021/12/10 05:40:38;;;;;;;89.38;69.30;;;3.70;99.90;;;;;;4914126;29;20733;-90
2021/12/10 05:43:30;;;;;;;93.53;58.95;;;3.60;99.90;;;;;;4919203;29;20170;-89
2021/12/10 05:46:01;;;;;;;94.00;70.13;;;3.60;99.90;;;;;;4919112;29;20197;-90
2021/12/10 05:48:30;;;;;;;103.03;81.55;;;3.70;99.90;;;;;;4919174;29;20255;-90
2021/12/10 05:50:58;;;;;;;145.60;132.63;;;3.60;99.90;;;;;;4919387;29;20190;-90
2021/12/10 05:53:27;;;;;;;106.97;96.00;;;3.60;99.90;;;;;;4919003;29;20216;-90
2021/12/10 05:56:13;;;;;;;108.97;96.45;;;3.60;99.90;;;;;;4918720;29;20215;-90
2021/12/10 05:59:15;;;;;;;102.43;88.22;;;3.60;99.90;;;;;;4919733;29;20177;-90
2021/12/10 06:01:41;;;;;;;91.15;69.32;;;3.60;99.90;;;;;;4918644;29;20224;-90
2021/12/10 06:04:23;;;;;;;108.80;97.30;;;3.60;99.90;;;;;;4918632;29;20173;-90
2021/12/10 06:07:07;;;;;;;118.72;107.15;;;3.60;99.90;;;;;;4919327;29;20211;-90
2021/12/10 06:09:36;;;;;;;119.07;107.35;;;3.60;99.90;;;;;;4918779;29;20618;-90
2021/12/10 06:12:05;;;;;;;179.00;164.10;;;3.60;99.90;;;;;;4919692;29;20166;-90
2021/12/10 06:14:51;;;;;;;151.15;138.30;;;3.60;99.90;;;;;;4918006;29;20200;-90
2021/12/10 06:17:17;;;;;;;130.18;118.28;;;3.60;99.90;;;;;;4917461;29;20691;-89
2021/12/10 06:19:43;;;;;;;131.00;118.63;;;3.60;99.90;;;;;;4919629;29;20180;-89
2021/12/10 06:22:14;;;;;;;113.70;102.00;;;3.60;99.90;;;;;;4918000;29;20189;-90
2021/12/10 06:24:40;;;;;;;162.27;148.52;;;3.60;99.90;;;;;;4918326;29;20414;-90
2021/12/10 06:27:12;;;;;;;107.50;95.20;;;3.60;99.90;;;;;;4919137;29;20189;-90
2021/12/10 06:29:41;;;;;;;118.60;106.75;;;3.60;99.90;;;;;;4918933;29;20169;-90
2021/12/10 06:32:16;;;;;;;120.80;108.75;;;3.60;99.90;;;;;;4917786;29;20177;-90
2021/12/10 06:34:42;;;;;;;129.95;118.35;;;3.60;99.90;;;;;;4918051;29;20193;-90
2021/12/10 06:37:11;;;;;;;115.57;104.03;;;3.60;99.90;;;;;;4917778;29;20191;-89
2021/12/10 06:39:37;;;;;;;102.15;90.85;;;3.60;99.90;;;;;;4917949;29;20169;-89
2021/12/10 06:42:13;;;;;;;122.20;110.23;;;3.60;99.90;;;;;;4918961;29;20172;-88
2021/12/10 06:47:50;;;;;;;98.47;86.45;;;3.60;99.90;;;;;;4925474;23;20307;-89
2021/12/10 06:51:26;;;;;;;;;;;;;;;;;;;;;
2021/12/10 06:53:58;;;;;;;98.25;81.80;;;3.50;99.90;;;;;;4918573;29;20175;-88
2021/12/10 06:56:35;;;;;;;;;;;;;;;;;;;;;
2021/12/10 06:59:11;;;;;;;93.05;79.40;;;3.50;99.90;;;;;;4919129;29;20169;-88
2021/12/10 07:01:44;;;;;;;114.25;102.72;;;3.50;99.90;;;;;;4918424;29;20177;-88
2021/12/10 07:04:19;;;;;;;115.70;103.97;;;3.50;99.90;;;;;;4918375;29;20169;-88
2021/12/10 07:06:49;;;;;;;110.50;98.70;;;3.50;99.90;;;;;;4917321;29;20227;-88
2021/12/10 07:09:33;;;;;;;152.55;139.68;;;3.50;99.90;;;;;;4918384;29;20146;-88
2021/12/10 07:11:59;;;;;;;164.55;151.05;;;3.50;99.90;;;;;;4918963;29;20161;-88
2021/12/10 07:14:56;;;;;;;111.67;100.47;;;3.50;99.90;;;;;;4918251;29;20558;-89
2021/12/10 07:17:29;;;;;;;124.47;112.45;;;3.60;99.90;;;;;;4916721;29;20193;-88
2021/12/10 07:19:55;;;;;;;106.10;94.78;;;3.50;99.90;;;;;;4918022;29;20162;-89
2021/12/10 07:22:21;;;;;;;102.73;91.90;;;3.60;99.90;;;;;;4918653;29;20626;-88
2021/12/10 07:24:55;;;;;;;89.87;73.40;;;3.60;99.90;;;;;;4918678;29;20405;-88
2021/12/10 07:27:33;;;;;;;;;;;;;;;;;;;;;
2021/12/10 07:30:12;;;;;;;96.82;75.88;;;3.60;99.90;;;;;;4918559;29;20161;-88
2021/12/10 07:32:48;;;;;;;88.78;57.33;;;3.60;99.90;;;;;;4917017;29;20216;-88
2021/12/10 07:35:15;;;;;;;95.72;75.43;;;3.60;99.90;;;;;;4917304;29;20197;-89
2021/12/10 07:37:44;;;;;;;90.88;74.45;;;3.60;99.90;;;;;;4918132;29;20169;-89
2021/12/10 07:40:26;;;;;;;89.20;64.28;;;3.60;99.90;;;;;;4924421;29;20173;-89
2021/12/10 07:42:52;;;;;;;91.93;61.53;;;3.70;99.90;;;;;;4917316;29;20168;-88
2021/12/10 07:45:19;;;;;;;85.53;59.65;;;3.70;99.90;;;;;;4916474;29;20173;-88
2021/12/10 07:47:49;;;;;;;93.13;61.75;;;3.70;99.90;;;;;;4917652;29;20260;-88
2021/12/10 07:50:19;;;;;;;101.88;90.75;;;3.70;99.90;;;;;;4916441;29;20169;-88
2021/12/10 07:52:45;;;;;;;86.38;59.70;;;3.70;99.90;;;;;;4916536;29;20207;-88
2021/12/10 07:55:16;;;;;;;90.80;53.45;;;3.80;99.90;;;;;;4916794;29;20228;-89
2021/12/10 07:57:43;;;;;;;87.10;56.13;;;3.80;99.90;;;;;;4917554;29;20146;-88
2021/12/10 08:00:21;;;;;;;96.05;65.03;;;3.80;99.90;;;;;;4917444;29;20180;-89
2021/12/10 08:02:51;;;;;;;97.20;66.80;;;3.80;99.90;;;;;;4916280;29;20526;-88
2021/12/10 08:05:18;;;;;;;98.93;83.13;;;3.80;99.90;;;;;;4917359;29;20570;-88
2021/12/10 08:07:44;;;;;;;90.65;61.38;;;3.80;99.90;;;;;;4917347;29;20200;-88
2021/12/10 08:10:15;;;;;;;97.77;74.80;;;3.80;99.90;;;;;;4917310;29;20256;-89
2021/12/10 08:12:53;;;;;;;;;;;;;;;;;;;;;
2021/12/10 08:15:20;;;;;;;87.70;62.88;;;3.80;99.90;;;;;;4917355;29;20189;-89
2021/12/10 08:17:57;;;;;;;98.63;79.63;;;3.80;99.90;;;;;;4916019;29;20594;-88
2021/12/10 08:20:28;;;;;;;103.93;87.28;;;3.90;99.90;;;;;;4917464;29;20480;-89
2021/12/10 08:22:59;;;;;;;98.85;82.75;;;3.90;99.90;;;;;;4916696;29;20174;-88
2021/12/10 08:25:33;;;;;;;100.18;67.50;;;3.90;99.90;;;;;;4917104;29;20236;-89
2021/12/10 08:28:02;;;;;;;110.88;98.82;;;3.90;99.90;;;;;;4915123;29;20169;-89
2021/12/10 08:30:31;;;;;;;94.28;65.63;;;3.90;99.90;;;;;;4916691;29;20232;-89
2021/12/10 08:32:57;;;;;;;94.05;71.18;;;3.90;99.90;;;;;;4915998;29;20181;-89
2021/12/10 08:35:29;;;;;;;108.75;97.30;;;3.90;99.90;;;;;;4916532;29;20205;-89
2021/12/10 08:38:02;;;;;;;90.47;70.65;;;3.90;99.90;;;;;;4915951;29;20268;-89
2021/12/10 08:40:43;;;;;;;93.88;78.15;;;3.90;99.90;;;;;;4916922;29;20189;-88
2021/12/10 08:43:19;;;;;;;103.93;90.60;;;3.90;99.90;;;;;;4916456;29;20636;-89
2021/12/10 08:45:51;;;;;;;108.05;86.32;;;3.90;99.90;;;;;;4916009;29;20279;-88
2021/12/10 08:48:17;;;;;;;112.85;101.18;;;3.90;99.90;;;;;;4917534;29;20181;-89
2021/12/10 08:50:54;;;;;;;119.90;108.07;;;3.90;99.90;;;;;;4916908;29;20253;-89
2021/12/10 08:53:20;;;;;;;108.05;96.18;;;3.80;99.90;;;;;;4916324;29;20634;-89
2021/12/10 08:56:01;;;;;;;103.70;85.68;;;3.90;99.90;;;;;;4916794;29;20233;-89
2021/12/10 08:58:28;;;;;;;131.63;118.82;;;3.90;99.90;;;;;;4917321;29;20149;-88
2021/12/10 09:01:22;;;;;;;99.88;82.90;;;3.90;99.90;;;;;;4915738;29;20197;-88
2021/12/10 09:04:25;;;;;;;94.40;75.55;;;4.00;99.90;;;;;;4917102;29;20154;-88
2021/12/10 09:06:55;;;;;;;101.10;71.90;;;3.90;99.90;;;;;;4915081;29;20199;-88
2021/12/10 09:09:24;;;;;;;95.32;73.07;;;4.00;99.90;;;;;;4915401;29;20260;-88
2021/12/10 09:11:58;;;;;;;90.25;57.17;;;4.00;99.90;;;;;;4915609;29;20693;-88
2021/12/10 09:14:29;;;;;;;99.45;71.90;;;4.00;99.90;;;;;;4917176;29;20549;-88
2021/12/10 09:16:57;;;;;;;89.75;51.63;;;4.00;99.90;;;;;;4915457;29;20675;-89
2021/12/10 09:19:24;;;;;;;92.85;65.25;;;4.00;99.90;;;;;;4916635;29;20252;-89
2021/12/10 09:21:52;;;;;;;99.40;74.88;;;4.00;99.90;;;;;;4916488;29;20173;-88
2021/12/10 09:24:21;;;;;;;89.60;59.45;;;4.00;99.90;;;;;;4915745;29;20185;-89
2021/12/10 09:26:52;;;;;;;143.52;130.13;;;4.00;99.90;;;;;;4916268;29;20189;-88
2021/12/10 09:29:30;;;;;;;110.53;93.07;;;4.00;99.90;;;;;;4916260;29;20212;-89
2021/12/10 09:31:56;;;;;;;205.27;188.75;;;4.00;99.90;;;;;;4917235;29;20164;-88
2021/12/10 09:34:28;;;;;;;91.33;64.60;;;4.00;99.90;;;;;;4915479;29;20197;-88
2021/12/10 09:36:57;;;;;;;89.50;60.63;;;4.00;99.90;;;;;;4915129;29;20433;-88
2021/12/10 09:39:26;;;;;;;87.75;51.85;;;4.00;99.90;;;;;;4919017;29;20316;-88
2021/12/10 09:41:54;;;;;;;88.18;45.17;;;4.00;99.90;;;;;;4920999;29;20675;-89
2021/12/10 09:44:25;;;;;;;95.00;55.47;;;4.10;99.90;;;;;;4920237;29;20525;-89
2021/12/10 09:47:14;;;;;;;81.15;41.75;;;4.10;99.90;;;;;;4918571;29;20353;-89
2021/12/10 09:52:36;;;;;;;75.60;23.02;;;4.10;99.90;;;;;;4919376;29;20313;-89
2021/12/10 09:55:07;;;;;;;78.07;24.38;;;4.20;99.90;;;;;;4919154;29;20204;-89
2021/12/10 09:57:35;;;;;;;76.63;26.30;;;4.30;99.90;;;;;;4919764;29;20659;-89
2021/12/10 10:00:14;;;;;;;77.95;23.23;;;4.30;99.90;;;;;;4919943;29;20363;-88
2021/12/10 10:02:43;;;;;;;80.38;18.42;;;4.40;99.90;;;;;;4920514;29;20597;-89
2021/12/10 10:05:57;;;;;;;76.50;18.48;;;4.40;99.90;;;;;;4919753;29;20189;-90
2021/12/10 10:11:24;;;;;;;72.57;13.50;;;4.50;99.90;;;;;;4920106;29;20165;-89
2021/12/10 10:13:52;;;;;;;83.05;10.20;;;4.50;99.90;;;;;;4918183;29;20278;-90
2021/12/10 10:16:43;;;;;;;70.85;11.02;;;4.50;99.90;;;;;;4919072;29;20203;-89
2021/12/10 10:19:34;;;;;;;70.88;11.38;;;4.50;99.90;;;;;;4914827;29;20185;-90
2021/12/10 11:06:16;;;;;;;69.72;8.93;;;5.00;99.90;;;;;;4812983;29;20322;-84
2021/12/10 11:09:14;;;;;;;70.30;9.23;;;5.00;99.90;;;;;;4884738;29;20174;-84
2021/12/10 11:12:14;;;;;;;69.30;8.93;;;5.00;99.90;;;;;;4904236;29;20256;-85
2021/12/10 11:14:53;;;;;;;;;;;;;;;;;;;;;
2021/12/10 11:17:50;;;;;;;73.20;19.90;;;5.00;99.90;;;;;;4906069;29;20707;-84
2021/12/10 11:20:42;;;;;;;75.53;19.98;;;5.00;99.90;;;;;;4910579;29;20540;-84
2021/12/10 11:23:25;;;;;;;75.20;17.23;;;5.00;99.90;;;;;;4905623;29;20192;-84
2021/12/10 11:26:12;;;;;;;72.80;9.43;;;5.00;99.90;;;;;;4923506;23;20216;-84
2021/12/10 11:43:16;;;;;;;70.70;9.10;;;5.10;99.90;;;;;;4901614;29;20178;-85
2021/12/10 11:50:28;;;;;;;;;;;;;;;;;;;;;
2021/12/10 12:03:13;;;;;;;72.85;8.85;;;5.10;99.90;;;;;;4922355;29;20181;-84
2021/12/10 12:14:45;;;;;;;73.35;12.30;;;5.20;99.90;;;;;;4068385;27;20268;-84
2021/12/10 12:29:09;;;;;;;77.25;15.05;;;5.10;99.20;;;;;;4883540;29;20292;-85
2021/12/10 12:54:31;;;;;;;;;;;;;;;;;;;;;
2021/12/10 13:04:27;;;;;;;74.38;13.55;;;4.70;99.90;;;;;;4882743;29;20231;-86
2021/12/10 13:14:53;;;;;;;72.47;12.02;;;4.70;99.90;;;;;;4895396;29;20306;-85
2021/12/10 13:17:53;;;;;;;72.30;9.75;;;4.70;99.90;;;;;;4889048;29;20197;-86
2021/12/10 13:25:06;;;;;;;;;;;;;;;;;;;;;
2021/12/10 13:31:36;;;;;;;76.63;18.17;;;4.50;99.90;;;;;;4804504;29;20184;-85
2021/12/10 13:34:08;;;;;;;80.53;16.92;;;4.40;99.90;;;;;;4822553;29;20186;-85
2021/12/10 13:40:47;;;;;;;;;;;;;;;;;;;;;
2021/12/10 13:43:47;;;;;;;73.13;17.08;;;4.40;99.90;;;;;;4829186;29;20188;-85
2021/12/10 13:46:33;;;;;;;;;;;;;;;;;;;;;
2021/12/10 13:49:07;;;;;;;73.70;17.55;;;4.50;99.90;;;;;;4894027;29;20272;-85
2021/12/10 13:51:45;;;;;;;74.13;19.85;;;4.50;99.90;;;;;;4924329;29;20173;-85
2021/12/10 14:09:38;;;;;;;70.63;11.43;;;4.40;99.90;;;;;;4850769;29;20179;-85
2021/12/10 14:12:47;;;;;;;72.82;11.80;;;4.40;99.90;;;;;;4852019;29;20184;-85
2021/12/10 14:22:14;;;;;;;73.05;13.60;;;4.40;99.90;;;;;;4827903;29;20193;-85
2021/12/10 14:25:29;;;;;;;73.32;12.32;;;4.30;99.90;;;;;;4834454;29;20188;-86
2021/12/10 14:29:01;;;;;;;71.70;10.85;;;4.30;99.90;;;;;;4812578;29;20725;-85
2021/12/10 14:32:16;;;;;;;;;;;;;;;;;;;;;
2021/12/10 14:35:35;;;;;;;75.18;13.50;;;4.20;99.90;;;;;;4847369;29;20203;-86
2021/12/10 14:38:27;;;;;;;;;;;;;;;;;;;;;
2021/12/10 14:41:45;;;;;;;;;;;;;;;;;;;;;
2021/12/10 14:45:17;;;;;;;79.47;31.27;;;3.90;99.90;;;;;;4886697;29;20241;-86
2021/12/10 14:54:21;;;;;;;87.10;47.80;;;3.70;99.90;;;;;;4940256;29;20749;-86
2021/12/10 15:01:08;;;;;;;;;;;;;;;;;;;;;
2021/12/10 15:04:15;;;;;;;85.70;51.72;;;3.60;99.90;;;;;;4784024;29;20734;-85
2021/12/10 15:11:04;;;;;;;87.07;59.97;;;3.70;99.90;;;;;;4828262;29;20207;-85
2021/12/10 15:13:49;;;;;;;;;;;;;;;;;;;;;
2021/12/10 15:17:13;;;;;;;98.90;77.93;;;3.70;99.90;;;;;;4825236;29;20212;-83
2021/12/10 15:20:17;;;;;;;108.80;97.10;;;3.60;99.90;;;;;;4862465;29;20295;-83
2021/12/10 15:22:46;;;;;;;103.63;90.18;;;3.50;99.90;;;;;;4881963;29;20170;-83
2021/12/10 15:25:37;;;;;;;117.30;105.90;;;3.50;99.90;;;;;;4882286;29;20186;-83
2021/12/10 15:28:19;;;;;;;141.77;128.75;;;3.60;99.90;;;;;;4882680;29;20166;-83
2021/12/10 15:30:52;;;;;;;95.63;80.78;;;3.60;99.90;;;;;;4882839;29;20178;-83
2021/12/10 15:37:06;;;;;;;;;;;;;;;;;;;;;
2021/12/10 15:40:08;;;;;;;137.88;125.40;;;3.60;99.90;;;;;;4884900;29;20155;-85
2021/12/10 15:42:56;;;;;;;159.73;146.25;;;3.60;99.90;;;;;;4882718;29;20257;-84
2021/12/10 15:45:38;;;;;;;115.93;104.07;;;3.50;99.90;;;;;;4882827;29;20532;-84
2021/12/10 15:48:53;;;;;;;143.77;130.38;;;3.50;99.90;;;;;;4901163;29;20178;-85
2021/12/10 15:51:38;;;;;;;117.57;105.03;;;3.60;99.90;;;;;;4883549;29;20173;-84
2021/12/10 15:55:09;;;;;;;147.50;134.25;;;3.60;99.90;;;;;;4883590;29;20179;-85
2021/12/10 15:58:30;;;;;;;126.75;114.35;;;3.50;99.90;;;;;;4846578;29;20222;-84
2021/12/10 16:04:28;;;;;;;118.03;106.65;;;3.50;99.90;;;;;;4893109;29;20185;-83
2021/12/10 16:07:12;;;;;;;175.02;160.95;;;3.50;99.90;;;;;;4883274;29;20193;-84
2021/12/10 16:10:00;;;;;;;133.90;121.93;;;3.50;99.90;;;;;;4884284;29;20182;-84
2021/12/10 16:13:03;;;;;;;;;;;;;;;;;;;;;
2021/12/10 16:16:30;;;;;;;128.50;116.60;;;3.50;99.90;;;;;;4885886;29;20214;-84
2021/12/10 16:19:40;;;;;;;137.68;125.20;;;3.50;99.90;;;;;;4888698;29;20255;-84
2021/12/10 16:25:21;;;;;;;145.35;132.52;;;3.40;99.90;;;;;;4952128;23;20286;-87
2021/12/10 16:28:40;;;;;;;148.93;136.65;;;3.50;99.90;;;;;;4898859;29;20201;-88
2021/12/10 16:42:06;;;;;;;123.00;110.57;;;3.40;99.90;;;;;;4780165;29;20192;-88
2021/12/10 18:03:22;;;;;;;135.15;122.43;;;3.70;99.90;;;;;;4900649;29;20770;-89
2021/12/10 18:10:03;;;;;;;113.93;102.32;;;3.60;99.90;;;;;;4884070;29;20210;-89
2021/12/10 18:16:47;;;;;;;122.38;109.78;;;3.70;99.90;;;;;;4864829;29;20688;-89
2021/12/10 18:20:08;;;;;;;;;;;;;;;;;;;;;
2021/12/10 23:19:11;;;;;;;87.38;32.35;;;1.90;99.90;;;;;;4841573;29;20262;-90
2021/12/10 23:21:57;;;;;;;84.65;31.75;;;1.80;99.90;;;;;;4896286;29;20258;-90
2021/12/10 23:25:53;;;;;;;;;;;;;;;;;;;;;
2021/12/10 23:28:40;;;;;;;;;;;;;;;;;;;;;
2021/12/10 23:31:21;;;;;;;86.05;34.78;;;1.80;99.90;;;;;;4880225;29;20178;-90
2021/12/10 23:34:01;;;;;;;86.03;38.88;;;1.80;99.90;;;;;;4881282;29;20166;-90
2021/12/10 23:37:10;;;;;;;94.75;37.58;;;1.80;99.90;;;;;;4879206;29;20214;-90
2021/12/10 23:40:44;;;;;;;87.50;35.80;;;1.80;99.90;;;;;;4873792;29;20569;-90
2021/12/10 23:46:40;;;;;;;95.78;42.40;;;1.70;99.90;;;;;;4930341;23;20225;-91
2021/12/10 23:49:50;;;;;;;90.88;43.38;;;1.70;99.90;;;;;;4919798;29;20271;-90
2021/12/10 23:52:53;;;;;;;87.18;36.90;;;1.60;99.90;;;;;;4918787;29;20232;-90
2021/12/10 23:55:43;;;;;;;87.60;36.92;;;1.60;99.90;;;;;;4933947;29;20204;-90
2021/12/10 23:58:46;;;;;;;92.57;45.17;;;1.50;99.90;;;;;;4913852;29;20182;-90
